createdAt,value
2022-08-07T00:02:36.989Z,13.48
2022-08-07T00:05:05.564Z,13.50
2022-08-07T00:07:40.396Z,13.45
2022-08-07T00:10:26.208Z,13.38
2022-08-07T00:12:59.826Z,13.40
2022-08-07T00:15:36.164Z,13.35
2022-08-07T00:18:24.255Z,13.34
2022-08-07T00:21:07.959Z,13.15
2022-08-07T00:23:54.415Z,13.26
2022-08-07T00:26:48.749Z,13.28
2022-08-07T00:29:13.088Z,13.23
2022-08-07T00:31:43.955Z,13.22
2022-08-07T00:34:18.279Z,12.98
2022-08-07T00:36:49.791Z,13.11
2022-08-07T00:39:20.454Z,13.18
2022-08-07T00:42:01.890Z,13.22
2022-08-07T00:44:34.855Z,13.19
2022-08-07T00:47:06.469Z,13.01
2022-08-07T00:50:20.419Z,13.13
2022-08-07T00:52:41.700Z,13.11
2022-08-07T00:55:25.567Z,13.10
2022-08-07T00:58:07.119Z,13.11
2022-08-07T01:00:35.150Z,13.03
2022-08-07T01:03:04.393Z,13.02
2022-08-07T01:05:36.527Z,13.04
2022-08-07T01:08:06.246Z,13.01
2022-08-07T01:10:39.554Z,12.67
2022-08-07T01:13:16.360Z,12.87
2022-08-07T01:16:05.009Z,12.83
2022-08-07T01:18:36.055Z,12.81
2022-08-07T01:21:22.815Z,12.88
2022-08-07T01:23:58.255Z,12.60
2022-08-07T01:26:27.291Z,12.49
2022-08-07T01:28:56.195Z,12.76
2022-08-07T01:31:42.748Z,12.45
2022-08-07T01:34:15.834Z,12.48
2022-08-07T01:36:52.953Z,12.71
2022-08-07T01:39:40.552Z,12.74
2022-08-07T01:42:38.517Z,12.79
2022-08-07T01:45:17.727Z,12.49
2022-08-07T01:48:19.302Z,12.71
2022-08-07T01:50:43.061Z,12.66
2022-08-07T01:53:20.875Z,12.55
2022-08-07T01:56:40.134Z,12.59
2022-08-07T01:59:45.359Z,12.56
2022-08-07T02:02:32.592Z,12.57
2022-08-07T02:05:48.222Z,12.53
2022-08-07T02:08:23.824Z,12.49
2022-08-07T02:10:59.773Z,12.51
2022-08-07T02:13:58.217Z,12.43
2022-08-07T02:16:32.984Z,12.46
2022-08-07T02:20:07.094Z,12.13
2022-08-07T02:21:58.519Z,12.15
2022-08-07T02:24:30.055Z,12.34
2022-08-07T02:27:02.621Z,11.81
2022-08-07T02:29:43.599Z,12.25
2022-08-07T02:32:23.193Z,12.15
2022-08-07T02:34:53.508Z,12.08
2022-08-07T02:37:28.732Z,12.06
2022-08-07T02:40:30.472Z,12.02
2022-08-07T02:43:00.469Z,11.84
2022-08-07T02:45:58.164Z,11.92
2022-08-07T02:48:20.334Z,11.88
2022-08-07T02:50:52.747Z,11.86
2022-08-07T02:53:38.801Z,11.76
2022-08-07T02:56:21.201Z,11.51
2022-08-07T02:58:55.150Z,11.77
2022-08-07T03:01:36.329Z,11.78
2022-08-07T03:04:14.012Z,11.75
2022-08-07T03:06:46.104Z,11.37
2022-08-07T03:09:43.960Z,11.72
2022-08-07T03:12:22.069Z,11.41
2022-08-07T03:14:54.138Z,11.60
2022-08-07T03:17:23.870Z,11.45
2022-08-07T03:19:56.503Z,11.67
2022-08-07T03:22:30.608Z,11.63
2022-08-07T03:25:01.267Z,11.63
2022-08-07T03:27:42.212Z,11.48
2022-08-07T03:30:28.599Z,11.63
2022-08-07T03:33:01.738Z,11.12
2022-08-07T03:35:43.422Z,11.67
2022-08-07T03:38:15.416Z,11.65
2022-08-07T03:40:45.552Z,11.48
2022-08-07T03:43:22.287Z,11.70
2022-08-07T03:45:56.003Z,11.75
2022-08-07T03:48:29.797Z,11.77
2022-08-07T03:51:00.864Z,11.83
2022-08-07T03:54:02.068Z,11.62
2022-08-07T03:56:33.411Z,11.91
2022-08-07T03:59:12.830Z,11.65
2022-08-07T04:01:46.746Z,11.83
2022-08-07T04:04:18.635Z,12.02
2022-08-07T04:06:52.640Z,12.09
2022-08-07T04:09:25.324Z,11.81
2022-08-07T04:12:23.897Z,11.76
2022-08-07T04:14:58.476Z,11.81
2022-08-07T04:18:31.023Z,12.33
2022-08-07T04:20:19.710Z,12.44
2022-08-07T04:22:53.355Z,12.11
2022-08-07T04:25:24.207Z,12.65
2022-08-07T04:28:00.780Z,12.76
2022-08-07T04:30:44.025Z,12.56
2022-08-07T04:33:25.756Z,13.02
2022-08-07T04:35:55.179Z,13.20
2022-08-07T04:38:29.254Z,13.63
2022-08-07T04:40:58.932Z,13.99
2022-08-07T04:44:10.216Z,14.37
2022-08-07T04:47:03.770Z,14.74
2022-08-07T04:50:05.049Z,15.00
2022-08-07T04:53:05.079Z,15.32
2022-08-07T04:58:12.232Z,15.66
2022-08-07T04:59:17.818Z,15.68
2022-08-07T05:02:28.740Z,15.82
2022-08-07T05:05:52.816Z,16.20
2022-08-07T05:09:01.585Z,16.37
2022-08-07T05:11:57.087Z,16.33
2022-08-07T05:14:52.665Z,16.06
2022-08-07T05:18:00.647Z,16.85
2022-08-07T05:20:14.389Z,16.89
2022-08-07T05:22:49.773Z,16.97
2022-08-07T05:25:25.936Z,17.31
2022-08-07T05:28:21.119Z,17.47
2022-08-07T05:30:56.765Z,17.48
2022-08-07T05:33:29.814Z,17.86
2022-08-07T05:35:59.509Z,17.99
2022-08-07T05:39:00.263Z,17.98
2022-08-07T05:41:21.751Z,18.20
2022-08-07T05:44:11.726Z,18.55
2022-08-07T05:46:51.242Z,18.72
2022-08-07T05:49:25.951Z,18.87
2022-08-07T05:51:55.924Z,18.69
2022-08-07T05:54:30.943Z,18.98
2022-08-07T05:57:16.810Z,19.10
2022-08-07T05:59:57.405Z,19.02
2022-08-07T06:02:33.572Z,18.91
2022-08-07T06:05:15.911Z,19.24
2022-08-07T06:08:15.133Z,19.21
2022-08-07T06:10:39.707Z,19.33
2022-08-07T06:13:13.664Z,19.52
2022-08-07T06:15:45.788Z,19.66
2022-08-07T06:18:23.660Z,19.87
2022-08-07T06:22:15.815Z,20.13
2022-08-07T06:24:37.816Z,20.53
2022-08-07T06:26:34.150Z,20.54
2022-08-07T06:29:06.527Z,20.67
2022-08-07T06:31:46.889Z,20.55
2022-08-07T06:34:20.790Z,20.85
2022-08-07T06:36:52.061Z,21.22
2022-08-07T06:40:13.398Z,21.33
2022-08-07T06:42:32.887Z,21.44
2022-08-07T06:45:18.583Z,21.71
2022-08-07T06:47:59.496Z,21.48
2022-08-07T06:50:49.845Z,21.91
2022-08-07T06:55:28.914Z,21.99
2022-08-07T06:56:17.950Z,21.81
2022-08-07T07:00:11.977Z,22.44
2022-08-07T07:01:50.827Z,21.71
2022-08-07T07:04:32.650Z,22.33
2022-08-07T07:07:18.877Z,22.17
2022-08-07T07:09:55.902Z,22.27
2022-08-07T07:12:37.429Z,22.90
2022-08-07T07:15:51.514Z,22.40
2022-08-07T07:18:48.026Z,22.22
2022-08-07T07:21:26.967Z,22.52
2022-08-07T07:24:12.679Z,22.95
2022-08-07T07:26:51.883Z,23.06
2022-08-07T07:29:56.491Z,23.36
2022-08-07T07:32:17.737Z,23.23
2022-08-07T07:34:57.765Z,23.19
2022-08-07T07:37:49.653Z,22.84
2022-08-07T07:40:26.121Z,22.62
2022-08-07T07:42:57.817Z,22.43
2022-08-07T07:46:37.922Z,23.06
2022-08-07T07:48:36.096Z,21.87
2022-08-07T07:51:08.058Z,23.09
2022-08-07T07:53:51.993Z,23.62
2022-08-07T07:56:30.079Z,23.64
2022-08-07T07:59:06.823Z,23.88
2022-08-07T08:02:03.650Z,24.11
2022-08-07T08:04:34.208Z,24.22
2022-08-07T08:07:07.636Z,24.33
2022-08-07T08:09:52.509Z,24.64
2022-08-07T08:12:52.157Z,24.55
2022-08-07T08:15:16.435Z,24.77
2022-08-07T08:17:57.501Z,24.89
2022-08-07T08:20:32.247Z,24.85
2022-08-07T08:23:21.011Z,25.26
2022-08-07T08:26:18.412Z,25.42
2022-08-07T08:28:52.333Z,25.56
2022-08-07T08:31:58.587Z,25.62
2022-08-07T08:34:34.841Z,25.94
2022-08-07T08:37:09.867Z,25.95
2022-08-07T08:39:58.643Z,26.12
2022-08-07T08:42:45.402Z,26.13
2022-08-07T08:45:59.383Z,25.82
2022-08-07T08:48:51.037Z,25.64
2022-08-07T08:52:01.163Z,25.68
2022-08-07T08:54:35.195Z,25.94
2022-08-07T08:57:11.176Z,25.76
2022-08-07T09:00:00.108Z,25.95
2022-08-07T09:02:52.273Z,26.16
2022-08-07T09:05:53.282Z,26.22
2022-08-07T09:08:36.217Z,26.37
2022-08-07T09:11:51.224Z,26.35
2022-08-07T09:16:21.700Z,26.66
2022-08-07T09:18:58.232Z,26.73
2022-08-07T09:22:22.455Z,26.59
2022-08-07T09:25:17.197Z,26.40
2022-08-07T09:28:05.358Z,26.23
2022-08-07T09:31:12.245Z,26.60
2022-08-07T09:34:13.953Z,26.21
2022-08-07T09:37:05.102Z,26.46
2022-08-07T09:40:30.447Z,27.06
2022-08-07T09:44:06.000Z,26.35
2022-08-07T09:47:55.117Z,26.60
2022-08-07T09:50:22.531Z,26.38
2022-08-07T09:53:03.175Z,26.44
2022-08-07T09:56:37.469Z,26.99
2022-08-07T10:00:01.167Z,25.41
2022-08-07T10:04:03.081Z,24.93
2022-08-07T10:06:53.891Z,25.84
2022-08-07T10:10:21.302Z,25.52
2022-08-07T10:13:55.120Z,26.42
2022-08-07T10:16:54.719Z,25.75
2022-08-07T10:19:58.512Z,26.15
2022-08-07T10:23:07.641Z,26.90
2022-08-07T10:26:07.919Z,27.08
2022-08-07T10:29:00.172Z,27.17
2022-08-07T10:31:52.911Z,27.30
2022-08-07T10:34:58.091Z,27.18
2022-08-07T10:38:21.065Z,26.34
2022-08-07T10:41:46.915Z,26.45
2022-08-07T10:44:38.379Z,27.11
2022-08-07T10:47:54.410Z,28.12
2022-08-07T10:50:44.892Z,28.40
2022-08-07T10:53:47.014Z,27.98
2022-08-07T10:56:55.182Z,28.52
2022-08-07T10:59:53.678Z,28.20
2022-08-07T11:02:53.874Z,28.94
2022-08-07T11:05:50.656Z,29.27
2022-08-07T11:08:46.302Z,29.37
2022-08-07T11:11:43.033Z,29.04
2022-08-07T11:14:56.909Z,28.97
2022-08-07T11:17:47.329Z,29.21
2022-08-07T11:20:40.912Z,29.61
2022-08-07T11:24:04.033Z,29.53
2022-08-07T11:27:04.152Z,30.04
2022-08-07T11:30:17.607Z,29.07
2022-08-07T11:33:14.158Z,28.36
2022-08-07T11:36:34.692Z,28.50
2022-08-07T11:39:59.945Z,28.59
2022-08-07T11:43:09.804Z,29.05
2022-08-07T11:46:11.034Z,28.98
2022-08-07T11:49:50.555Z,29.60
2022-08-07T11:52:28.953Z,29.48
2022-08-07T11:56:24.928Z,29.99
2022-08-07T11:59:01.292Z,30.08
2022-08-07T12:02:20.932Z,30.31
2022-08-07T12:05:49.186Z,30.12
2022-08-07T12:08:48.682Z,30.24
2022-08-07T12:11:35.778Z,30.17
2022-08-07T12:14:22.411Z,30.37
2022-08-07T12:17:19.694Z,30.18
2022-08-07T12:20:30.580Z,30.38
2022-08-07T12:24:06.329Z,29.81
2022-08-07T12:26:40.537Z,30.30
2022-08-07T12:29:23.338Z,28.03
2022-08-07T12:32:28.706Z,28.18
2022-08-07T12:34:59.070Z,26.73
2022-08-07T12:38:11.172Z,28.06
2022-08-07T12:40:46.942Z,28.77
2022-08-07T12:44:01.460Z,29.50
2022-08-07T12:46:31.977Z,30.36
2022-08-07T12:49:48.626Z,29.77
2022-08-07T12:52:34.042Z,29.80
2022-08-07T12:55:22.381Z,30.16
2022-08-07T12:58:14.818Z,30.59
2022-08-07T13:01:14.135Z,29.87
2022-08-07T13:04:36.101Z,29.59
2022-08-07T13:08:11.661Z,30.45
2022-08-07T13:10:52.097Z,30.47
2022-08-07T13:13:50.298Z,30.15
2022-08-07T13:17:05.027Z,30.83
2022-08-07T13:20:21.787Z,30.54
2022-08-07T13:23:59.802Z,30.66
2022-08-07T13:26:21.703Z,30.44
2022-08-07T13:29:12.719Z,30.61
2022-08-07T13:32:15.267Z,30.19
2022-08-07T13:35:15.811Z,30.23
2022-08-07T13:38:13.533Z,29.82
2022-08-07T13:41:11.307Z,30.30
2022-08-07T13:43:52.817Z,30.01
2022-08-07T13:46:37.592Z,29.79
2022-08-07T13:50:35.356Z,30.09
2022-08-07T13:52:30.449Z,30.08
2022-08-07T13:54:59.474Z,29.35
2022-08-07T13:57:32.154Z,29.95
2022-08-07T14:00:13.472Z,29.17
2022-08-07T14:03:04.983Z,29.47
2022-08-07T14:05:37.290Z,29.52
2022-08-07T14:08:09.185Z,30.28
2022-08-07T14:10:43.533Z,29.54
2022-08-07T14:13:20.963Z,29.77
2022-08-07T14:16:06.433Z,29.49
2022-08-07T14:18:57.100Z,29.84
2022-08-07T14:22:01.668Z,29.70
2022-08-07T14:24:41.252Z,29.35
2022-08-07T14:28:11.223Z,29.50
2022-08-07T14:30:11.984Z,29.99
2022-08-07T14:32:50.762Z,30.52
2022-08-07T14:35:42.796Z,29.77
2022-08-07T14:38:26.147Z,29.93
2022-08-07T14:41:12.187Z,29.85
2022-08-07T14:43:58.072Z,29.75
2022-08-07T14:46:37.594Z,29.46
2022-08-07T14:52:24.470Z,28.38
2022-08-07T14:54:58.515Z,29.35
2022-08-07T15:12:01.880Z,28.89
2022-08-07T15:14:55.944Z,28.62
2022-08-07T15:17:55.425Z,28.62
2022-08-07T15:20:33.363Z,28.98
2022-08-07T15:23:20.329Z,28.71
2022-08-07T15:25:58.426Z,28.82
2022-08-07T15:28:34.764Z,28.78
2022-08-07T15:31:09.678Z,28.64
2022-08-07T15:33:42.771Z,28.51
2022-08-07T15:36:12.770Z,28.30
2022-08-07T15:38:58.917Z,28.77
2022-08-07T15:42:44.981Z,28.52
2022-08-07T15:44:23.814Z,28.62
2022-08-07T15:47:08.758Z,28.57
2022-08-07T15:50:03.788Z,27.92
2022-08-07T15:52:38.228Z,28.12
2022-08-07T15:55:12.280Z,28.11
2022-08-07T15:57:48.754Z,27.92
2022-08-07T16:00:31.697Z,27.53
2022-08-07T16:03:46.436Z,27.43
2022-08-07T16:06:16.600Z,27.31
2022-08-07T16:08:47.706Z,27.57
2022-08-07T16:11:52.878Z,27.51
2022-08-07T16:14:59.485Z,27.51
2022-08-07T16:18:49.544Z,27.01
2022-08-07T16:22:01.288Z,27.08
2022-08-07T16:24:37.894Z,26.52
2022-08-07T16:27:40.744Z,26.88
2022-08-07T16:30:31.199Z,26.88
2022-08-07T16:34:03.182Z,27.06
2022-08-07T16:37:01.641Z,27.05
2022-08-07T16:40:28.792Z,26.98
2022-08-07T16:43:22.803Z,27.33
2022-08-07T16:47:06.681Z,26.88
2022-08-07T16:50:20.593Z,27.00
2022-08-07T16:52:52.359Z,27.57
2022-08-07T16:55:47.184Z,27.39
2022-08-07T16:59:10.053Z,27.75
2022-08-07T17:01:41.217Z,27.52
2022-08-07T17:04:24.426Z,27.74
2022-08-07T17:07:28.550Z,27.63
2022-08-07T17:10:54.715Z,27.76
2022-08-07T17:14:18.055Z,27.79
2022-08-07T17:17:01.522Z,27.39
2022-08-07T17:20:02.790Z,27.44
2022-08-07T17:23:08.849Z,27.37
2022-08-07T17:26:02.765Z,27.15
2022-08-07T17:28:50.011Z,26.99
2022-08-07T17:31:25.116Z,26.48
2022-08-07T17:34:34.219Z,26.22
2022-08-07T17:37:16.101Z,25.88
2022-08-07T17:40:30.519Z,25.68
2022-08-07T17:43:18.416Z,25.16
2022-08-07T17:46:34.923Z,24.64
2022-08-07T17:49:46.220Z,24.15
2022-08-07T17:52:49.889Z,23.19
2022-08-07T17:56:00.660Z,22.56
2022-08-07T17:58:46.366Z,21.90
2022-08-07T18:01:56.759Z,21.55
2022-08-07T18:04:57.043Z,21.14
2022-08-07T18:07:36.149Z,20.87
2022-08-07T18:10:37.683Z,20.59
2022-08-07T18:13:43.628Z,20.38
2022-08-07T18:16:32.602Z,20.22
2022-08-07T18:21:11.509Z,20.06
2022-08-07T18:22:16.916Z,19.82
2022-08-07T18:24:56.926Z,19.51
2022-08-07T18:27:50.248Z,19.50
2022-08-07T18:30:47.792Z,19.36
2022-08-07T18:33:57.539Z,19.15
2022-08-07T18:36:33.125Z,19.03
2022-08-07T18:40:05.542Z,18.97
2022-08-07T18:42:29.036Z,18.81
2022-08-07T18:45:39.767Z,18.51
2022-08-07T18:50:06.133Z,18.57
2022-08-07T18:52:34.995Z,17.95
2022-08-07T18:54:27.929Z,18.31
2022-08-07T18:57:30.366Z,18.20
2022-08-07T19:00:32.795Z,17.92
2022-08-07T19:03:49.649Z,17.97
2022-08-07T19:06:51.441Z,17.83
2022-08-07T19:09:57.432Z,17.69
2022-08-07T19:12:48.642Z,17.55
2022-08-07T19:16:05.130Z,17.25
2022-08-07T19:19:31.747Z,17.31
2022-08-07T19:22:14.975Z,17.25
2022-08-07T19:24:50.461Z,16.78
2022-08-07T19:28:56.940Z,17.07
2022-08-07T19:30:56.519Z,16.98
2022-08-07T19:33:13.196Z,16.53
2022-08-07T19:35:56.779Z,16.88
2022-08-07T19:38:32.562Z,16.80
2022-08-07T19:41:04.113Z,16.67
2022-08-07T19:43:49.272Z,16.60
2022-08-07T19:46:30.125Z,16.55
2022-08-07T19:49:58.075Z,16.46
2022-08-07T19:52:18.949Z,15.89
2022-08-07T19:54:56.684Z,16.31
2022-08-07T19:58:02.037Z,16.20
2022-08-07T20:00:28.451Z,15.99
2022-08-07T20:03:35.487Z,15.84
2022-08-07T20:06:04.435Z,15.50
2022-08-07T20:08:37.005Z,15.29
2022-08-07T20:11:34.105Z,15.03
2022-08-07T20:14:07.243Z,15.34
2022-08-07T20:16:45.498Z,15.34
2022-08-07T20:19:16.472Z,15.14
2022-08-07T20:21:48.061Z,15.00
2022-08-07T20:24:28.749Z,14.85
2022-08-07T20:27:07.650Z,14.81
2022-08-07T20:29:57.463Z,14.76
2022-08-07T20:32:42.446Z,14.83
2022-08-07T20:35:17.813Z,14.81
2022-08-07T20:37:58.915Z,14.55
2022-08-07T20:40:34.688Z,14.66
2022-08-07T20:43:14.666Z,14.28
2022-08-07T20:46:26.613Z,14.43
2022-08-07T20:49:54.194Z,14.38
2022-08-07T20:51:35.793Z,14.36
2022-08-07T20:54:12.081Z,14.37
2022-08-07T20:56:45.912Z,14.24
2022-08-07T20:59:27.208Z,14.31
2022-08-07T21:02:54.324Z,13.96
2022-08-07T21:05:51.105Z,14.18
2022-08-07T21:08:41.377Z,14.18
2022-08-07T21:11:29.083Z,14.14
2022-08-07T21:14:32.553Z,13.82
2022-08-07T21:18:03.514Z,13.54
2022-08-07T21:20:04.983Z,13.19
2022-08-07T21:22:53.464Z,13.19
2022-08-07T21:25:39.194Z,13.05
2022-08-07T21:28:50.193Z,13.05
2022-08-07T21:31:49.916Z,13.06
2022-08-07T21:34:26.638Z,13.19
2022-08-07T21:37:57.527Z,13.21
2022-08-07T21:40:54.483Z,13.33
2022-08-07T21:43:55.884Z,13.30
2022-08-07T21:46:50.535Z,13.27
2022-08-07T21:50:02.675Z,13.23
2022-08-07T21:52:54.808Z,13.17
2022-08-07T21:55:48.040Z,13.08
2022-08-07T21:58:47.521Z,13.02
2022-08-07T22:02:10.503Z,13.00
2022-08-07T22:04:28.959Z,12.76
2022-08-07T22:07:31.600Z,12.90
2022-08-07T22:10:29.212Z,12.77
2022-08-07T22:13:13.586Z,12.76
2022-08-07T22:16:42.302Z,12.65
2022-08-07T22:19:13.400Z,12.50
2022-08-07T22:22:02.275Z,12.36
2022-08-07T22:25:08.748Z,12.37
2022-08-07T22:28:32.397Z,12.41
2022-08-07T22:31:58.948Z,12.42
2022-08-07T22:34:28.725Z,12.35
2022-08-07T22:38:02.766Z,12.32
2022-08-07T22:40:51.521Z,12.27
2022-08-07T22:43:39.413Z,12.19
2022-08-07T22:47:04.221Z,11.94
2022-08-07T22:50:20.795Z,12.19
2022-08-07T22:54:06.526Z,12.17
2022-08-07T22:56:28.702Z,11.93
2022-08-07T22:59:32.580Z,12.09
2022-08-07T23:02:51.627Z,12.03
2022-08-07T23:06:07.565Z,12.06
2022-08-07T23:08:58.578Z,11.95
2022-08-07T23:12:10.712Z,11.92
2022-08-07T23:15:00.288Z,11.89
2022-08-07T23:17:58.868Z,11.84
2022-08-07T23:21:16.204Z,11.78
2022-08-07T23:24:11.675Z,11.45
2022-08-07T23:28:21.223Z,11.61
2022-08-07T23:31:18.619Z,11.53
2022-08-07T23:34:23.297Z,11.35
2022-08-07T23:37:29.855Z,11.42
2022-08-07T23:40:41.200Z,11.39
2022-08-07T23:43:59.535Z,11.45
2022-08-07T23:46:46.618Z,11.32
2022-08-07T23:49:50.038Z,11.22
2022-08-07T23:53:00.187Z,11.16
2022-08-07T23:55:54.230Z,11.05
